Time;durP1;ratioP1;P1;durP2;ratioP2;P2;SDS_P1;SDS_P2;PMS_P1;PMS_P2;Temp;Humidity;BMP_temperature;BMP_pressure;BME280_temperature;BME280_humidity;BME280_pressure;Samples;Min_cycle;Max_cycle;Signal;HPM_P1;HPM_P2
2022/06/24 00:00:10;;;;;;;5.82;3.60;;;14.70;59.70;;;;;;4973885;23;20038;-60
2022/06/24 00:02:15;;;;;;;5.65;3.60;;;14.60;59.70;;;;;;4973454;23;20030;-61
2022/06/24 00:04:21;;;;;;;;;;;14.60;59.80;;;;;;5012603;23;20081;-60
2022/06/24 00:06:23;;;;;;;4.95;3.45;;;14.70;59.80;;;;;;4990911;23;19913;-60
2022/06/24 00:08:25;;;;;;;5.63;3.65;;;14.60;59.80;;;;;;5010374;23;20361;-60
2022/06/24 00:10:33;;;;;;;6.47;3.53;;;14.70;59.90;;;;;;5018099;23;20026;-61
2022/06/24 00:12:36;;;;;;;5.47;3.70;;;14.60;59.80;;;;;;4993691;23;20022;-61
2022/06/24 00:14:41;;;;;;;5.97;3.53;;;14.60;59.90;;;;;;5005926;23;20026;-61
2022/06/24 00:16:57;;;;;;;7.00;3.92;;;14.60;59.90;;;;;;4979395;23;20066;-61
2022/06/24 00:19:10;;;;;;;5.80;3.90;;;14.60;59.90;;;;;;4972704;23;20034;-60
2022/06/24 00:21:13;;;;;;;6.15;3.80;;;14.60;59.90;;;;;;5007361;23;20453;-60
2022/06/24 00:23:22;;;;;;;5.75;3.50;;;14.60;59.80;;;;;;4996508;23;20030;-60
2022/06/24 00:25:26;;;;;;;5.05;3.20;;;14.60;59.80;;;;;;4948346;23;20146;-59
2022/06/24 00:27:28;;;;;;;5.35;3.13;;;14.60;59.90;;;;;;4993022;23;20037;-59
2022/06/24 00:29:33;;;;;;;5.45;3.53;;;14.70;60.00;;;;;;4999911;23;20484;-59
2022/06/24 00:31:35;;;;;;;5.20;3.45;;;14.60;59.90;;;;;;4971312;23;20036;-61
2022/06/24 00:33:45;;;;;;;6.72;3.78;;;14.60;59.90;;;;;;4993438;23;20056;-59
2022/06/24 00:36:01;;;;;;;5.90;3.60;;;14.60;59.90;;;;;;4969906;23;20034;-59
2022/06/24 00:38:21;;;;;;;5.88;3.30;;;14.60;59.90;;;;;;4943561;23;20506;-60
2022/06/24 00:40:25;;;;;;;5.32;3.30;;;14.60;59.90;;;;;;4996389;23;20109;-59
2022/06/24 00:42:28;;;;;;;5.88;3.58;;;14.60;59.90;;;;;;4943809;23;20054;-60
2022/06/24 00:45:15;;;;;;;5.32;3.35;;;14.60;59.90;;;;;;4996333;23;20096;-59
2022/06/24 00:47:18;;;;;;;5.47;3.60;;;14.60;59.90;;;;;;4970533;23;20425;-60
2022/06/24 00:49:27;;;;;;;5.78;3.60;;;14.60;59.80;;;;;;5000236;23;20592;-60
2022/06/24 00:51:37;;;;;;;4.43;3.05;;;14.60;59.90;;;;;;4974705;23;20358;-60
2022/06/24 00:53:52;;;;;;;5.55;3.40;;;14.60;59.80;;;;;;4972914;23;20042;-60
2022/06/24 00:55:55;;;;;;;4.93;3.10;;;14.60;59.80;;;;;;5000453;23;20350;-60
2022/06/24 00:57:59;;;;;;;5.22;3.20;;;14.60;59.80;;;;;;4998039;23;20501;-60
2022/06/24 01:00:03;;;;;;;4.40;3.10;;;14.60;59.80;;;;;;4993869;23;20039;-60
2022/06/24 01:02:06;;;;;;;4.85;3.13;;;14.60;59.80;;;;;;4996640;23;20541;-59
2022/06/24 01:04:11;;;;;;;5.43;3.22;;;14.60;59.80;;;;;;4972831;23;20030;-59
2022/06/24 01:06:13;;;;;;;6.65;3.45;;;14.60;59.70;;;;;;4992580;23;20410;-60
2022/06/24 01:08:15;;;;;;;5.65;3.47;;;14.60;59.70;;;;;;4996436;23;20499;-59
2022/06/24 01:10:18;;;;;;;5.88;3.47;;;14.60;59.80;;;;;;5001110;23;20031;-60
2022/06/24 01:12:20;;;;;;;5.30;3.17;;;14.60;59.80;;;;;;4998191;23;20028;-61
2022/06/24 01:14:22;;;;;;;4.28;3.00;;;14.60;59.70;;;;;;4994623;23;20374;-60
2022/06/24 01:16:25;;;;;;;5.57;3.17;;;14.60;59.70;;;;;;4996986;23;20385;-60
2022/06/24 01:18:28;;;;;;;5.28;3.20;;;14.60;59.70;;;;;;4974271;23;20533;-60
2022/06/24 01:20:30;;;;;;;5.10;3.10;;;14.60;59.70;;;;;;4996279;23;20089;-60
2022/06/24 01:22:33;;;;;;;4.13;3.10;;;14.60;59.60;;;;;;4991074;23;20082;-60
2022/06/24 01:24:35;;;;;;;5.13;3.38;;;14.60;59.60;;;;;;5002014;23;20484;-60
2022/06/24 01:26:42;;;;;;;5.00;3.10;;;14.60;59.60;;;;;;4967837;23;20402;-61
2022/06/24 01:28:47;;;;;;;4.32;3.22;;;14.60;59.60;;;;;;4973286;23;20513;-61
2022/06/24 01:30:49;;;;;;;4.80;3.00;;;14.60;59.60;;;;;;4995854;23;20034;-62
2022/06/24 01:32:51;;;;;;;4.20;3.08;;;14.60;59.60;;;;;;4976778;23;20034;-62
2022/06/24 01:34:53;;;;;;;4.93;3.15;;;14.60;59.50;;;;;;4972114;23;20612;-61
2022/06/24 01:36:55;;;;;;;3.78;2.60;;;14.70;59.50;;;;;;4995172;23;20065;-61
2022/06/24 01:38:58;;;;;;;5.38;3.10;;;14.70;59.50;;;;;;4950556;23;20046;-63
2022/06/24 01:41:00;;;;;;;4.50;2.97;;;14.70;59.50;;;;;;5001407;23;20116;-61
2022/06/24 01:43:03;;;;;;;4.68;2.83;;;14.70;59.50;;;;;;4996780;23;20026;-62
2022/06/24 01:45:06;;;;;;;4.50;2.80;;;14.70;59.40;;;;;;5001262;23;20053;-61
2022/06/24 01:47:08;;;;;;;5.53;3.00;;;14.70;59.40;;;;;;4981545;23;20023;-62
2022/06/24 01:49:11;;;;;;;4.38;2.80;;;14.70;59.50;;;;;;5001441;23;20030;-61
2022/06/24 01:51:15;;;;;;;4.00;2.80;;;14.70;59.40;;;;;;5005804;23;20932;-61
2022/06/24 01:53:17;;;;;;;4.68;3.13;;;14.80;59.40;;;;;;5004084;23;20018;-61
2022/06/24 01:55:20;;;;;;;3.97;2.80;;;14.80;59.50;;;;;;4978495;23;20113;-61
2022/06/24 01:57:22;;;;;;;3.85;2.72;;;14.80;59.60;;;;;;5005668;23;20057;-61
2022/06/24 01:59:24;;;;;;;4.55;3.17;;;14.80;59.40;;;;;;5003643;23;20030;-61
2022/06/24 02:01:27;;;;;;;6.15;3.40;;;14.80;59.70;;;;;;4999611;23;20105;-61
2022/06/24 02:03:38;;;;;;;4.20;2.80;;;14.80;59.50;;;;;;4995094;23;20069;-61
2022/06/24 02:05:41;;;;;;;4.97;3.10;;;14.80;59.60;;;;;;4969230;23;20643;-62
2022/06/24 02:07:44;;;;;;;7.28;3.60;;;14.80;59.70;;;;;;4968835;23;20030;-61
2022/06/24 02:14:27;;;;;;;3.45;2.47;;;14.90;59.70;;;;;;4997454;23;20031;-62
2022/06/24 02:16:30;;;;;;;4.35;2.90;;;14.90;59.70;;;;;;4969287;23;20573;-66
2022/06/24 02:18:33;;;;;;;5.07;2.63;;;14.90;59.80;;;;;;4976938;23;20052;-62
2022/06/24 02:20:35;;;;;;;5.57;3.00;;;15.00;59.80;;;;;;4994783;23;20030;-61
2022/06/24 02:22:47;;;;;;;3.67;2.70;;;15.00;59.90;;;;;;4996558;23;20033;-61
2022/06/24 02:24:49;;;;;;;4.13;2.40;;;15.00;59.90;;;;;;4969369;23;20038;-63
2022/06/24 02:26:51;;;;;;;3.30;2.20;;;15.00;59.90;;;;;;4999837;23;20081;-62
2022/06/24 02:28:54;;;;;;;3.72;2.33;;;15.00;59.90;;;;;;4971560;23;20349;-63
2022/06/24 02:30:59;;;;;;;4.45;2.63;;;15.00;60.00;;;;;;4971578;23;20113;-62
2022/06/24 02:33:01;;;;;;;4.22;2.30;;;15.00;60.10;;;;;;4970301;23;20058;-62
2022/06/24 02:35:03;;;;;;;3.28;2.10;;;15.10;60.20;;;;;;5000764;23;20034;-63
2022/06/24 02:37:06;;;;;;;4.43;2.38;;;15.10;60.40;;;;;;4966514;23;20038;-63
2022/06/24 02:39:08;;;;;;;3.97;2.38;;;15.10;60.40;;;;;;4996879;23;20097;-63
2022/06/24 02:41:10;;;;;;;3.00;2.00;;;15.10;60.60;;;;;;4972161;23;20027;-62
2022/06/24 02:43:31;;;;;;;3.13;2.15;;;15.10;60.70;;;;;;4998515;23;21178;-62
2022/06/24 02:45:36;;;;;;;3.55;2.17;;;15.10;60.60;;;;;;4974618;23;20041;-63
2022/06/24 02:47:38;;;;;;;3.45;2.22;;;15.20;60.70;;;;;;4975370;23;20569;-62
2022/06/24 02:49:40;;;;;;;2.92;1.90;;;15.20;60.70;;;;;;4992990;23;20037;-62
2022/06/24 02:51:43;;;;;;;2.42;1.63;;;15.20;60.70;;;;;;4995500;23;20496;-62
2022/06/24 02:53:46;;;;;;;3.35;1.90;;;15.20;60.80;;;;;;4976525;23;20495;-62
2022/06/24 02:55:53;;;;;;;3.30;1.67;;;15.30;61.50;;;;;;4968851;23;20824;-62
2022/06/24 02:57:55;;;;;;;2.42;1.60;;;15.30;61.50;;;;;;4996689;23;20030;-61
2022/06/24 02:59:57;;;;;;;3.22;1.55;;;15.30;60.90;;;;;;4972916;23;20074;-62
2022/06/24 03:02:00;;;;;;;2.25;1.70;;;15.30;61.10;;;;;;4974823;23;20499;-62
2022/06/24 03:04:02;;;;;;;2.67;1.65;;;15.30;61.00;;;;;;4966644;23;20069;-62
2022/06/24 03:06:05;;;;;;;4.38;1.70;;;15.30;60.90;;;;;;4967850;23;20034;-61
2022/06/24 03:08:08;;;;;;;2.70;1.80;;;15.30;61.00;;;;;;5001370;23;20437;-62
2022/06/24 03:10:11;;;;;;;2.47;1.45;;;15.40;61.00;;;;;;4972265;23;20397;-62
2022/06/24 03:12:13;;;;;;;1.98;1.52;;;15.40;60.90;;;;;;4967034;23;20138;-61
2022/06/24 03:14:15;;;;;;;2.72;1.70;;;15.40;60.80;;;;;;4969181;23;20217;-62
2022/06/24 03:16:18;;;;;;;1.60;1.50;;;15.40;60.70;;;;;;4975395;23;20031;-62
2022/06/24 03:18:20;;;;;;;2.85;1.50;;;15.40;60.60;;;;;;4968570;23;20034;-62
2022/06/24 03:20:22;;;;;;;2.55;1.50;;;15.40;60.60;;;;;;4993912;23;20521;-62
2022/06/24 03:22:25;;;;;;;1.85;1.40;;;15.50;60.60;;;;;;5000672;23;20758;-62
2022/06/24 03:24:28;;;;;;;2.67;1.70;;;15.50;60.50;;;;;;4967494;23;20468;-62
2022/06/24 03:26:30;;;;;;;2.50;1.60;;;15.50;60.40;;;;;;4993467;23;20576;-62
2022/06/24 03:28:32;;;;;;;3.83;1.85;;;15.50;60.50;;;;;;4973281;23;20035;-61
2022/06/24 03:30:35;;;;;;;2.75;1.60;;;15.60;60.10;;;;;;4970808;23;20809;-61
2022/06/24 03:32:37;;;;;;;1.88;1.40;;;15.60;60.10;;;;;;4970900;23;20085;-62
2022/06/24 03:34:40;;;;;;;3.17;1.73;;;15.60;60.00;;;;;;4965428;23;20101;-62
2022/06/24 03:36:42;;;;;;;2.53;1.45;;;15.60;60.00;;;;;;4970746;23;20270;-62
2022/06/24 03:38:45;;;;;;;3.33;1.55;;;15.60;59.90;;;;;;4966079;23;20140;-62
2022/06/24 03:40:47;;;;;;;2.30;1.50;;;15.70;59.90;;;;;;4964856;23;20026;-62
2022/06/24 03:42:49;;;;;;;2.35;1.63;;;15.70;59.80;;;;;;4970383;23;20105;-62
2022/06/24 03:44:51;;;;;;;1.38;1.27;;;15.70;59.70;;;;;;4968007;23;20031;-62
2022/06/24 03:46:53;;;;;;;2.55;1.70;;;15.70;59.70;;;;;;4968786;23;20481;-62
2022/06/24 03:48:56;;;;;;;2.47;1.73;;;15.80;60.30;;;;;;4973234;23;20101;-62
2022/06/24 03:50:58;;;;;;;3.00;1.50;;;15.80;59.70;;;;;;4972895;23;20227;-61
2022/06/24 03:53:00;;;;;;;1.60;1.27;;;15.80;59.60;;;;;;4966805;23;20507;-62
2022/06/24 03:55:03;;;;;;;1.95;1.35;;;15.80;59.60;;;;;;4968845;23;20058;-62
2022/06/24 03:57:06;;;;;;;2.03;1.20;;;15.80;59.50;;;;;;5000920;23;20030;-62
2022/06/24 03:59:08;;;;;;;2.08;1.35;;;15.80;59.50;;;;;;4995377;23;20026;-63
2022/06/24 04:01:10;;;;;;;1.20;1.08;;;15.80;59.50;;;;;;4948240;23;20039;-62
2022/06/24 04:03:13;;;;;;;2.55;1.48;;;15.80;59.50;;;;;;4973572;23;20031;-62
2022/06/24 04:05:15;;;;;;;2.27;1.70;;;15.80;59.50;;;;;;4974329;23;20148;-62
2022/06/24 04:07:18;;;;;;;2.22;1.48;;;15.80;59.40;;;;;;4995067;23;20045;-62
2022/06/24 04:09:20;;;;;;;2.00;1.20;;;15.80;59.30;;;;;;4996613;23;20030;-62
2022/06/24 04:11:23;;;;;;;2.35;1.40;;;15.80;59.40;;;;;;4976421;23;20114;-62
2022/06/24 04:13:25;;;;;;;1.48;1.35;;;15.80;59.30;;;;;;4995879;23;20552;-62
2022/06/24 04:15:27;;;;;;;1.30;1.10;;;15.80;59.30;;;;;;4970194;23;20035;-62
2022/06/24 04:17:29;;;;;;;2.28;1.38;;;15.90;59.30;;;;;;5001754;23;20058;-62
2022/06/24 04:19:34;;;;;;;1.90;1.20;;;15.90;59.30;;;;;;4996786;23;20305;-62
2022/06/24 04:21:36;;;;;;;1.58;1.30;;;15.90;59.30;;;;;;4968697;23;20102;-62
2022/06/24 04:23:39;;;;;;;1.73;1.50;;;15.90;59.30;;;;;;4975227;23;20046;-62
2022/06/24 04:25:41;;;;;;;2.28;1.48;;;15.90;59.30;;;;;;4973366;23;20401;-62
2022/06/24 04:27:44;;;;;;;2.67;1.15;;;15.90;59.30;;;;;;4996024;23;20392;-62
2022/06/24 04:29:46;;;;;;;2.05;1.30;;;15.90;59.20;;;;;;4978899;23;20031;-60
2022/06/24 04:31:49;;;;;;;2.25;1.23;;;15.90;59.20;;;;;;4985406;23;20392;-62
2022/06/24 04:33:51;;;;;;;2.55;1.33;;;15.90;59.20;;;;;;4987065;23;20027;-62
2022/06/24 04:35:54;;;;;;;2.00;1.23;;;15.90;59.20;;;;;;4985819;23;20503;-63
2022/06/24 04:37:56;;;;;;;2.83;1.42;;;15.90;59.20;;;;;;5015020;23;20109;-62
2022/06/24 04:39:59;;;;;;;1.95;1.20;;;15.90;59.20;;;;;;5005856;23;20027;-62
2022/06/24 04:42:02;;;;;;;1.83;1.23;;;15.90;59.20;;;;;;4999268;23;20041;-62
2022/06/24 04:44:04;;;;;;;1.73;1.37;;;15.90;59.20;;;;;;4997525;23;20030;-62
2022/06/24 04:46:06;;;;;;;1.73;1.25;;;15.90;59.10;;;;;;5011289;23;20026;-62
2022/06/24 04:48:08;;;;;;;1.25;1.13;;;15.90;59.10;;;;;;4967639;23;20054;-62
2022/06/24 04:50:11;;;;;;;1.17;1.02;;;15.90;59.70;;;;;;4996951;23;20030;-62
2022/06/24 04:52:15;;;;;;;2.35;1.38;;;15.90;59.10;;;;;;4999574;23;20065;-62
2022/06/24 04:54:17;;;;;;;2.15;1.30;;;15.90;59.10;;;;;;4996905;23;20165;-62
2022/06/24 04:56:20;;;;;;;1.50;1.20;;;15.90;59.10;;;;;;4992435;23;20114;-62
2022/06/24 04:58:22;;;;;;;1.52;1.30;;;15.90;59.10;;;;;;4993832;23;20622;-62
2022/06/24 05:00:24;;;;;;;2.08;1.30;;;15.90;59.10;;;;;;4995380;23;20053;-62
2022/06/24 05:02:26;;;;;;;5.07;1.55;;;15.90;59.10;;;;;;4967565;23;20513;-63
2022/06/24 05:04:28;;;;;;;1.65;1.08;;;15.90;59.10;;;;;;4992206;23;20037;-63
2022/06/24 05:06:31;;;;;;;3.00;1.70;;;15.90;59.10;;;;;;4971887;23;20030;-63
2022/06/24 05:08:33;;;;;;;2.47;1.20;;;15.90;59.10;;;;;;4994564;23;20030;-63
2022/06/24 05:10:36;;;;;;;2.75;1.23;;;15.90;59.10;;;;;;4990364;23;20185;-63
2022/06/24 05:12:38;;;;;;;1.95;1.17;;;15.90;59.20;;;;;;4993545;23;20066;-63
2022/06/24 05:14:40;;;;;;;1.55;1.40;;;15.90;59.10;;;;;;4970579;23;20165;-63
2022/06/24 05:16:42;;;;;;;1.20;0.98;;;15.90;59.20;;;;;;4990749;23;20026;-63
2022/06/24 05:18:45;;;;;;;3.90;1.40;;;15.90;59.10;;;;;;4994205;23;20899;-63
2022/06/24 05:20:47;;;;;;;1.85;1.25;;;15.90;59.10;;;;;;4997457;23;20027;-63
2022/06/24 05:22:49;;;;;;;2.20;1.20;;;15.90;59.10;;;;;;4994961;23;20102;-64
2022/06/24 05:24:51;;;;;;;2.08;1.25;;;15.90;59.10;;;;;;4970094;23;20460;-64
2022/06/24 05:26:54;;;;;;;2.70;1.35;;;15.90;59.10;;;;;;5000209;23;20026;-62
2022/06/24 05:28:56;;;;;;;1.52;1.13;;;15.90;59.10;;;;;;4946293;23;20239;-63
2022/06/24 05:30:58;;;;;;;1.50;1.20;;;15.90;59.00;;;;;;4968194;23;20030;-63
2022/06/24 05:33:01;;;;;;;1.20;1.10;;;16.00;59.10;;;;;;4972816;23;20513;-63
2022/06/24 05:35:05;;;;;;;1.92;1.30;;;15.90;59.00;;;;;;4999792;23;20057;-63
2022/06/24 05:37:08;;;;;;;1.65;1.00;;;15.90;59.10;;;;;;4992925;23;20026;-62
2022/06/24 05:39:10;;;;;;;1.50;1.17;;;16.00;59.20;;;;;;4995566;23;20541;-64
2022/06/24 05:41:13;;;;;;;2.15;1.60;;;16.00;59.30;;;;;;4972443;23;20039;-63
2022/06/24 05:43:16;;;;;;;1.70;1.42;;;16.00;59.40;;;;;;4996611;23;20436;-63
2022/06/24 05:45:18;;;;;;;1.57;1.20;;;16.00;59.50;;;;;;4993872;23;20072;-62
2022/06/24 05:47:20;;;;;;;1.67;1.10;;;16.00;59.60;;;;;;4969593;23;20058;-62
2022/06/24 05:49:22;;;;;;;2.22;1.63;;;16.00;59.80;;;;;;4974494;23;20633;-62
2022/06/24 05:51:25;;;;;;;2.45;1.50;;;16.00;59.90;;;;;;4967367;23;20129;-63
2022/06/24 05:55:47;;;;;;;2.50;1.58;;;16.00;60.10;;;;;;4966035;23;20137;-62
2022/06/24 05:57:50;;;;;;;2.65;1.40;;;16.00;60.20;;;;;;4993409;23;20113;-63
2022/06/24 05:59:52;;;;;;;2.53;1.70;;;16.10;60.50;;;;;;4993362;23;20758;-63
2022/06/24 06:01:54;;;;;;;3.45;1.80;;;16.10;60.60;;;;;;4991036;23;20132;-64
2022/06/24 06:04:00;;;;;;;2.47;1.63;;;16.10;61.40;;;;;;4991477;23;20022;-63
2022/06/24 06:06:02;;;;;;;3.22;1.50;;;16.10;60.90;;;;;;4970724;23;20215;-63
2022/06/24 06:08:05;;;;;;;4.07;1.83;;;16.10;61.00;;;;;;4970706;23;20185;-62
2022/06/24 06:10:07;;;;;;;3.92;2.08;;;16.10;61.30;;;;;;4969434;23;20031;-63
2022/06/24 06:12:10;;;;;;;6.03;2.83;;;16.10;61.70;;;;;;4965457;23;20317;-63
2022/06/24 06:14:12;;;;;;;5.22;2.80;;;16.10;61.90;;;;;;4975889;23;20602;-64
2022/06/24 06:16:15;;;;;;;5.35;2.90;;;16.10;62.10;;;;;;4994778;23;20453;-63
2022/06/24 06:18:17;;;;;;;9.90;3.45;;;16.20;62.30;;;;;;4971001;23;20058;-63
2022/06/24 06:20:19;;;;;;;5.80;3.03;;;16.20;62.50;;;;;;4974326;23;20039;-64
2022/06/24 06:22:21;;;;;;;7.82;3.15;;;16.20;62.50;;;;;;4962167;23;20025;-64
2022/06/24 06:24:24;;;;;;;4.85;2.95;;;16.20;62.50;;;;;;4992721;23;20045;-63
2022/06/24 06:26:28;;;;;;;7.32;2.72;;;16.20;62.50;;;;;;4969410;23;20078;-63
2022/06/24 06:28:31;;;;;;;6.65;3.13;;;16.20;62.50;;;;;;4998278;23;20109;-64
2022/06/24 06:30:33;;;;;;;6.87;3.10;;;16.20;62.40;;;;;;4993231;23;20121;-63
2022/06/24 06:32:36;;;;;;;5.28;2.75;;;16.30;62.40;;;;;;4965166;23;20274;-63
2022/06/24 06:34:38;;;;;;;4.90;2.70;;;16.30;62.40;;;;;;4997901;23;20540;-63
2022/06/24 06:36:40;;;;;;;5.55;2.97;;;16.30;62.40;;;;;;4966172;23;20588;-63
2022/06/24 06:38:43;;;;;;;6.13;3.22;;;16.40;62.60;;;;;;4940604;23;20062;-63
2022/06/24 06:40:45;;;;;;;5.95;2.80;;;16.40;62.60;;;;;;4971138;23;20026;-63
2022/06/24 06:42:50;;;;;;;5.60;2.80;;;16.40;62.60;;;;;;4971511;23;20291;-63
2022/06/24 06:44:53;;;;;;;4.53;2.78;;;16.40;62.40;;;;;;4992292;23;20941;-63
2022/06/24 06:46:55;;;;;;;4.90;2.42;;;16.40;62.40;;;;;;4958700;23;20034;-63
2022/06/24 06:48:57;;;;;;;8.15;3.13;;;16.40;62.30;;;;;;4974282;23;20070;-63
2022/06/24 06:51:00;;;;;;;6.47;2.53;;;16.40;62.40;;;;;;4989192;23;20209;-64
2022/06/24 06:53:03;;;;;;;6.45;3.08;;;16.40;62.40;;;;;;4993148;23;20049;-63
2022/06/24 06:55:06;;;;;;;4.70;3.08;;;16.40;62.30;;;;;;4994126;23;20350;-63
2022/06/24 06:57:08;;;;;;;4.38;2.33;;;16.40;62.20;;;;;;4972920;23;20832;-62
2022/06/24 06:59:10;;;;;;;4.22;2.40;;;16.50;62.20;;;;;;4991931;23;20449;-63
2022/06/24 07:01:13;;;;;;;5.03;2.50;;;16.50;62.10;;;;;;4967629;23;20070;-62
2022/06/24 07:03:15;;;;;;;4.95;2.50;;;16.50;62.10;;;;;;4972604;23;20055;-63
2022/06/24 07:05:18;;;;;;;3.57;2.07;;;16.50;62.00;;;;;;4969393;23;20546;-63
2022/06/24 07:07:20;;;;;;;6.10;2.80;;;16.50;61.90;;;;;;4987167;23;20277;-63
2022/06/24 07:09:22;;;;;;;5.35;2.70;;;16.50;61.70;;;;;;4966088;23;20518;-63
2022/06/24 07:11:24;;;;;;;3.38;2.30;;;16.50;61.70;;;;;;4968193;23;20231;-62
2022/06/24 07:13:27;;;;;;;3.95;2.40;;;16.50;61.60;;;;;;4963532;23;20053;-62
2022/06/24 07:15:29;;;;;;;3.67;2.05;;;16.50;61.60;;;;;;4966023;23;20066;-62
2022/06/24 07:17:32;;;;;;;5.63;2.67;;;16.50;61.50;;;;;;4998159;23;20478;-62
2022/06/24 07:19:34;;;;;;;7.18;2.95;;;16.50;61.50;;;;;;4992979;23;20378;-62
2022/06/24 07:21:41;;;;;;;5.45;2.70;;;16.50;61.50;;;;;;4968697;23;20038;-62
2022/06/24 07:23:44;;;;;;;4.07;2.67;;;16.50;61.50;;;;;;4995623;23;20657;-62
2022/06/24 07:25:46;;;;;;;4.30;3.03;;;16.50;61.30;;;;;;4996646;23;20030;-62
2022/06/24 07:27:48;;;;;;;5.10;3.92;;;16.60;61.30;;;;;;4993809;23;20431;-62
2022/06/24 07:29:51;;;;;;;7.35;4.90;;;16.60;61.20;;;;;;4995191;23;20030;-62
2022/06/24 07:31:53;;;;;;;6.32;4.53;;;16.50;61.10;;;;;;4975666;23;20158;-62
2022/06/24 07:33:55;;;;;;;6.60;4.40;;;16.60;61.20;;;;;;4994782;23;20516;-62
2022/06/24 07:35:57;;;;;;;8.73;5.70;;;16.60;61.10;;;;;;4995908;23;20058;-62
2022/06/24 07:38:00;;;;;;;7.85;5.82;;;16.60;61.00;;;;;;4999235;23;20038;-61
2022/06/24 07:40:02;;;;;;;8.30;5.63;;;16.60;61.00;;;;;;4949367;23;20027;-62
2022/06/24 07:42:05;;;;;;;10.07;6.40;;;16.60;61.00;;;;;;4968974;23;20104;-62
2022/06/24 07:44:07;;;;;;;7.65;5.95;;;16.60;61.20;;;;;;4969832;23;20375;-62
2022/06/24 07:46:11;;;;;;;8.20;5.95;;;16.60;61.30;;;;;;4998267;23;20034;-62
2022/06/24 07:48:13;;;;;;;8.57;6.20;;;16.60;61.30;;;;;;4967105;23;20346;-62
2022/06/24 07:50:15;;;;;;;8.88;6.45;;;16.60;61.30;;;;;;4994543;23;20030;-62
2022/06/24 07:52:17;;;;;;;9.02;6.78;;;16.60;61.30;;;;;;4972580;23;20033;-62
2022/06/24 07:54:20;;;;;;;8.68;6.15;;;16.60;61.40;;;;;;4998362;23;20289;-62
2022/06/24 07:58:42;;;;;;;9.93;6.25;;;16.60;61.20;;;;;;4968617;23;20680;-62
2022/06/24 08:00:44;;;;;;;8.88;5.70;;;16.60;61.30;;;;;;4970456;23;20074;-62
2022/06/24 08:02:47;;;;;;;8.18;5.55;;;16.60;61.20;;;;;;4995254;23;20037;-62
2022/06/24 08:04:50;;;;;;;10.63;5.80;;;16.60;61.20;;;;;;4968783;23;20146;-62
2022/06/24 08:06:52;;;;;;;9.20;6.03;;;16.60;61.10;;;;;;4988026;23;20097;-62
2022/06/24 08:08:55;;;;;;;8.02;5.65;;;16.60;61.10;;;;;;4990154;23;20089;-62
2022/06/24 08:10:57;;;;;;;10.65;5.25;;;16.60;61.00;;;;;;4974046;23;20606;-63
2022/06/24 08:12:59;;;;;;;9.05;5.57;;;16.50;61.00;;;;;;4968384;23;20039;-63
2022/06/24 08:15:01;;;;;;;7.82;5.20;;;16.50;61.00;;;;;;4971825;23;20110;-62
2022/06/24 08:17:04;;;;;;;7.28;4.85;;;16.50;60.90;;;;;;5000047;23;20026;-63
2022/06/24 08:19:06;;;;;;;9.25;5.35;;;16.60;61.00;;;;;;4972680;23;20572;-62
2022/06/24 08:21:08;;;;;;;7.55;5.10;;;16.60;61.00;;;;;;4967987;23;20066;-63
2022/06/24 08:23:11;;;;;;;7.90;4.80;;;16.50;61.00;;;;;;4973867;23;20253;-63
2022/06/24 08:25:13;;;;;;;6.13;4.72;;;16.50;61.00;;;;;;4999235;23;20078;-62
2022/06/24 08:27:15;;;;;;;7.40;5.20;;;16.50;61.00;;;;;;4995133;23;20026;-62
2022/06/24 08:29:17;;;;;;;6.07;4.85;;;16.50;60.90;;;;;;4996554;23;20438;-62
2022/06/24 08:31:20;;;;;;;6.68;4.80;;;16.50;61.00;;;;;;4999906;23;20149;-62
2022/06/24 08:33:22;;;;;;;9.73;5.03;;;16.50;60.90;;;;;;4971605;23;20575;-63
2022/06/24 08:35:25;;;;;;;6.82;4.43;;;16.50;61.00;;;;;;4993643;23;20108;-63
2022/06/24 08:37:27;;;;;;;6.68;4.63;;;16.50;60.90;;;;;;4998638;23;20030;-63
2022/06/24 08:39:29;;;;;;;6.97;4.53;;;16.50;60.90;;;;;;4973410;23;20598;-63
2022/06/24 08:41:31;;;;;;;7.65;4.57;;;16.50;60.90;;;;;;4994867;23;20089;-62
2022/06/24 08:43:38;;;;;;;6.63;4.65;;;16.50;60.90;;;;;;4972878;23;20623;-63
2022/06/24 08:45:40;;;;;;;6.85;4.03;;;16.50;60.90;;;;;;4975593;23;20105;-63
2022/06/24 08:47:43;;;;;;;5.88;4.63;;;16.50;60.90;;;;;;4999803;23;20038;-64
2022/06/24 08:49:46;;;;;;;5.70;4.07;;;16.50;60.80;;;;;;4957221;23;20031;-63
2022/06/24 08:51:50;;;;;;;6.10;4.72;;;16.50;60.80;;;;;;5007956;23;20030;-63
2022/06/24 08:53:57;;;;;;;5.80;4.05;;;16.50;60.90;;;;;;4988220;23;20695;-63
2022/06/24 08:55:59;;;;;;;10.23;4.50;;;16.50;60.70;;;;;;5009785;23;20039;-63
2022/06/24 08:58:10;;;;;;;7.40;4.65;;;16.50;61.30;;;;;;4983153;23;20029;-63
2022/06/24 09:00:13;;;;;;;6.55;4.57;;;16.50;60.70;;;;;;5006891;23;20041;-63
2022/06/24 09:02:17;;;;;;;5.95;4.45;;;16.50;60.70;;;;;;4997589;23;20566;-63
2022/06/24 09:04:23;;;;;;;5.93;4.32;;;16.50;60.70;;;;;;5000818;23;20113;-63
2022/06/24 09:06:25;;;;;;;5.90;4.10;;;16.50;60.70;;;;;;4996176;23;20558;-63
2022/06/24 09:08:33;;;;;;;5.78;4.10;;;16.50;60.60;;;;;;4971109;23;20050;-63
2022/06/24 09:10:38;;;;;;;5.65;3.97;;;16.50;60.70;;;;;;4969121;23;20031;-63
2022/06/24 09:12:46;;;;;;;6.35;4.22;;;16.50;60.70;;;;;;4976011;23;20039;-63
2022/06/24 09:14:48;;;;;;;5.40;4.00;;;16.50;60.70;;;;;;5000165;23;20119;-62
2022/06/24 09:16:50;;;;;;;6.07;3.83;;;16.40;60.60;;;;;;4995252;23;20304;-62
2022/06/24 09:18:55;;;;;;;5.63;4.05;;;16.40;60.60;;;;;;4993268;23;20027;-62
2022/06/24 09:20:58;;;;;;;6.25;3.97;;;16.40;60.60;;;;;;4998829;23;20425;-63
2022/06/24 09:23:11;;;;;;;5.82;4.15;;;16.40;60.60;;;;;;4970820;23;20755;-63
2022/06/24 09:25:13;;;;;;;6.22;3.83;;;16.40;60.60;;;;;;4996651;23;20524;-62
2022/06/24 09:27:15;;;;;;;4.85;3.58;;;16.40;60.60;;;;;;4993958;23;20089;-63
2022/06/24 09:29:17;;;;;;;4.95;3.75;;;16.40;60.60;;;;;;4996341;23;20556;-62
2022/06/24 09:31:25;;;;;;;5.95;4.07;;;16.40;60.70;;;;;;4999189;23;20489;-62
2022/06/24 09:33:31;;;;;;;6.30;4.22;;;16.40;60.70;;;;;;4975689;23;20031;-61
2022/06/24 09:35:36;;;;;;;6.30;3.58;;;16.40;60.70;;;;;;4966729;23;20050;-61
2022/06/24 09:37:39;;;;;;;4.60;3.55;;;16.40;60.80;;;;;;4969745;23;20031;-62
2022/06/24 09:39:41;;;;;;;6.00;4.28;;;16.40;60.80;;;;;;4997495;23;20252;-62
2022/06/24 09:41:49;;;;;;;5.68;3.97;;;16.40;60.90;;;;;;4997608;23;20113;-62
2022/06/24 09:43:53;;;;;;;5.45;4.13;;;16.30;60.90;;;;;;4993661;23;20317;-61
2022/06/24 09:45:55;;;;;;;4.82;3.38;;;16.30;61.00;;;;;;4943823;23;20180;-62
2022/06/24 09:48:00;;;;;;;4.90;3.72;;;16.30;60.90;;;;;;5001413;23;20044;-61
2022/06/24 09:50:02;;;;;;;6.10;3.90;;;16.30;60.90;;;;;;4999913;23;20462;-62
2022/06/24 09:52:08;;;;;;;5.18;3.92;;;16.30;61.00;;;;;;4967878;23;20425;-62
2022/06/24 09:54:17;;;;;;;5.43;4.13;;;16.30;61.00;;;;;;4995792;23;20033;-63
2022/06/24 09:56:20;;;;;;;4.88;3.65;;;16.30;61.00;;;;;;4996648;23;20092;-62
2022/06/24 09:58:23;;;;;;;7.43;4.00;;;16.30;61.00;;;;;;4975686;23;20477;-62
2022/06/24 10:00:41;;;;;;;5.28;3.90;;;16.30;61.10;;;;;;4999137;23;20397;-62
2022/06/24 10:02:44;;;;;;;5.15;3.70;;;16.30;61.10;;;;;;4974416;23;20420;-62
2022/06/24 10:04:51;;;;;;;5.63;3.90;;;16.30;61.00;;;;;;4994213;23;20030;-62
2022/06/24 10:06:57;;;;;;;6.43;4.28;;;16.20;61.00;;;;;;4969281;23;20027;-62
2022/06/24 10:09:04;;;;;;;6.63;4.22;;;16.20;61.00;;;;;;4996271;23;20038;-62
2022/06/24 10:11:11;;;;;;;5.68;4.10;;;16.20;61.00;;;;;;4973160;23;20030;-62
2022/06/24 10:13:34;;;;;;;5.47;4.38;;;16.20;61.00;;;;;;4975211;23;20082;-62
2022/06/24 10:15:37;;;;;;;6.10;4.35;;;16.20;61.00;;;;;;4997165;23;20034;-62
2022/06/24 10:17:40;;;;;;;8.10;4.82;;;16.20;61.00;;;;;;5001821;23;20077;-62
2022/06/24 10:19:44;;;;;;;5.65;4.63;;;16.20;61.00;;;;;;4995360;23;20347;-62
2022/06/24 10:21:48;;;;;;;8.55;4.65;;;16.20;60.90;;;;;;4969105;23;20041;-62
2022/06/24 10:23:52;;;;;;;6.90;5.03;;;16.20;60.90;;;;;;4994346;23;20556;-62
2022/06/24 10:25:55;;;;;;;8.57;5.40;;;16.20;60.90;;;;;;4975506;23;20037;-62
2022/06/24 10:28:00;;;;;;;7.57;5.30;;;16.20;60.90;;;;;;4969330;23;20995;-62
2022/06/24 10:30:04;;;;;;;6.78;5.50;;;16.20;60.90;;;;;;4968491;23;20078;-62
2022/06/24 10:32:07;;;;;;;7.00;4.88;;;16.20;60.90;;;;;;4996496;23;20027;-61
2022/06/24 10:36:33;;;;;;;8.73;5.88;;;16.20;60.90;;;;;;4995301;23;20045;-62
2022/06/24 10:38:42;;;;;;;7.57;5.57;;;16.20;61.00;;;;;;4976425;23;20065;-62
2022/06/24 10:40:45;;;;;;;6.70;5.57;;;16.10;60.90;;;;;;4976469;23;20107;-62
2022/06/24 10:43:38;;;;;;;8.60;5.80;;;16.20;61.00;;;;;;4967864;23;20098;-61
2022/06/24 10:45:40;;;;;;;7.50;5.70;;;16.10;60.90;;;;;;4952948;23;20109;-61
2022/06/24 10:47:43;;;;;;;8.13;5.75;;;16.10;60.90;;;;;;4967970;23;20374;-62
2022/06/24 10:49:52;;;;;;;7.18;5.50;;;16.10;60.90;;;;;;4995617;23;20030;-62
2022/06/24 10:51:54;;;;;;;7.95;5.88;;;16.10;60.90;;;;;;4971104;23;20031;-61
2022/06/24 10:54:09;;;;;;;8.55;6.15;;;16.10;60.90;;;;;;4975307;23;20440;-61
2022/06/24 10:56:40;;;;;;;7.97;6.20;;;16.10;60.90;;;;;;5001813;23;20558;-61